createdAt,value
2017-04-28T00:00:33.015Z,0
2017-04-28T00:01:13.911Z,0
2017-04-28T00:01:54.770Z,0
2017-04-28T00:02:35.648Z,0
2017-04-28T00:03:16.526Z,0
2017-04-28T00:03:57.398Z,0
2017-04-28T00:04:38.277Z,0
2017-04-28T00:05:19.162Z,0
2017-04-28T00:06:03.554Z,0
2017-04-28T00:06:44.432Z,0
2017-04-28T00:07:25.327Z,0
2017-04-28T00:08:06.205Z,0
2017-04-28T00:08:47.075Z,0
2017-04-28T00:09:27.945Z,0
2017-04-28T00:10:08.817Z,0
2017-04-28T00:10:49.684Z,0
2017-04-28T00:11:30.568Z,0
2017-04-28T00:12:11.454Z,0
2017-04-28T00:12:52.330Z,0
2017-04-28T00:13:33.212Z,0
2017-04-28T00:14:14.081Z,0
2017-04-28T00:14:54.966Z,0
2017-04-28T00:15:35.844Z,0
2017-04-28T00:16:16.710Z,0
2017-04-28T00:16:57.581Z,0
2017-04-28T00:17:38.441Z,0
2017-04-28T00:18:19.293Z,0
2017-04-28T00:19:00.162Z,0
2017-04-28T00:19:41.028Z,0
2017-04-28T00:20:21.901Z,0
2017-04-28T00:21:02.785Z,0
2017-04-28T00:21:43.663Z,0
2017-04-28T00:22:24.524Z,0
2017-04-28T00:23:05.407Z,0
2017-04-28T00:23:46.290Z,0
2017-04-28T00:24:27.202Z,0
2017-04-28T00:25:08.064Z,0
2017-04-28T00:25:48.914Z,0
2017-04-28T00:26:29.774Z,0
2017-04-28T00:27:10.637Z,0
2017-04-28T00:27:51.491Z,0
2017-04-28T00:28:32.374Z,0
2017-04-28T00:29:13.224Z,0
2017-04-28T00:29:54.130Z,0
2017-04-28T00:30:34.986Z,0
2017-04-28T00:31:15.856Z,0
2017-04-28T00:31:56.747Z,0
2017-04-28T00:32:37.595Z,0
2017-04-28T00:33:18.467Z,0
2017-04-28T00:33:59.344Z,0
2017-04-28T00:34:40.189Z,0
2017-04-28T00:35:21.037Z,0
2017-04-28T00:36:01.895Z,0
2017-04-28T00:36:42.774Z,0
2017-04-28T00:37:23.640Z,0
2017-04-28T00:38:04.501Z,0
2017-04-28T00:38:45.390Z,0
2017-04-28T00:39:26.264Z,0
2017-04-28T00:40:07.137Z,0
2017-04-28T00:40:48.004Z,0
2017-04-28T00:41:28.871Z,0
2017-04-28T00:42:09.797Z,0
2017-04-28T00:42:50.643Z,0
2017-04-28T00:43:31.527Z,0
2017-04-28T00:44:12.412Z,0
2017-04-28T00:44:53.261Z,0
2017-04-28T00:45:34.192Z,0
2017-04-28T00:46:15.078Z,0
2017-04-28T00:46:55.954Z,0
2017-04-28T00:47:36.868Z,0
2017-04-28T00:48:17.738Z,0
2017-04-28T00:48:58.600Z,0
2017-04-28T00:49:39.470Z,0
2017-04-28T00:50:20.328Z,0
2017-04-28T00:51:01.187Z,0
2017-04-28T00:51:42.042Z,0
2017-04-28T00:52:22.930Z,0
2017-04-28T00:53:03.880Z,0
2017-04-28T00:53:44.670Z,0
2017-04-28T00:54:25.558Z,0
2017-04-28T00:55:06.444Z,0
2017-04-28T00:55:47.294Z,0
2017-04-28T00:56:28.156Z,0
2017-04-28T00:57:09.015Z,0
2017-04-28T00:57:49.896Z,0
2017-04-28T00:58:30.816Z,0
2017-04-28T00:59:11.670Z,0
2017-04-28T00:59:52.575Z,0
2017-04-28T01:00:33.439Z,0
2017-04-28T01:01:14.304Z,0
2017-04-28T01:01:55.164Z,0
2017-04-28T01:02:36.040Z,0
2017-04-28T01:03:16.922Z,0
2017-04-28T01:03:57.794Z,0
2017-04-28T01:04:38.660Z,0
2017-04-28T01:05:19.525Z,0
2017-04-28T01:06:00.397Z,0
2017-04-28T01:06:41.261Z,0
2017-04-28T01:07:22.151Z,0
2017-04-28T01:08:03.021Z,0
2017-04-28T01:08:43.942Z,0
2017-04-28T01:09:24.840Z,0
2017-04-28T01:10:05.705Z,0
2017-04-28T01:10:46.571Z,0
2017-04-28T01:11:27.446Z,0
2017-04-28T01:12:08.334Z,0
2017-04-28T01:12:49.227Z,0
2017-04-28T01:13:30.096Z,0
2017-04-28T01:14:10.962Z,0
2017-04-28T01:14:51.845Z,0
2017-04-28T01:15:32.728Z,0
2017-04-28T01:16:13.620Z,0
2017-04-28T01:16:54.480Z,0
2017-04-28T01:17:35.327Z,0
2017-04-28T01:18:16.206Z,0
2017-04-28T01:18:57.071Z,0
2017-04-28T01:19:37.948Z,0
2017-04-28T01:20:18.830Z,0
2017-04-28T01:20:59.713Z,0
2017-04-28T01:21:40.602Z,0
2017-04-28T01:22:21.469Z,0
2017-04-28T01:23:02.344Z,0
2017-04-28T01:23:43.224Z,0
2017-04-28T01:24:24.110Z,0
2017-04-28T01:25:05.006Z,0
2017-04-28T01:25:45.880Z,0
2017-04-28T01:26:26.789Z,0
2017-04-28T01:27:07.674Z,0
2017-04-28T01:27:48.552Z,0
2017-04-28T01:28:29.438Z,0
2017-04-28T01:29:10.317Z,0
2017-04-28T01:29:51.921Z,0
2017-04-28T01:30:32.805Z,0
2017-04-28T01:31:13.706Z,0
2017-04-28T01:31:54.583Z,0
2017-04-28T01:32:35.452Z,0
2017-04-28T01:33:16.333Z,0
2017-04-28T01:33:57.221Z,0
2017-04-28T01:34:38.098Z,0
2017-04-28T01:35:18.960Z,0
2017-04-28T01:35:59.835Z,0
2017-04-28T01:36:40.704Z,0
2017-04-28T01:37:21.581Z,0
2017-04-28T01:38:02.457Z,0
2017-04-28T01:38:43.325Z,0
2017-04-28T01:39:24.206Z,0
2017-04-28T01:40:05.092Z,0
2017-04-28T01:40:45.992Z,0
2017-04-28T01:41:26.881Z,0
2017-04-28T01:42:07.755Z,0
2017-04-28T01:42:48.638Z,0
2017-04-28T01:43:29.508Z,0
2017-04-28T01:44:10.389Z,0
2017-04-28T01:44:51.268Z,0
2017-04-28T01:46:50.003Z,0
2017-04-28T01:47:31.237Z,0
2017-04-28T01:48:11.877Z,0
2017-04-28T01:48:52.741Z,0
2017-04-28T01:49:33.623Z,0
2017-04-28T01:50:14.486Z,0
2017-04-28T01:50:55.465Z,0
2017-04-28T01:51:36.344Z,0
2017-04-28T01:52:17.222Z,0
2017-04-28T01:52:58.090Z,0
2017-04-28T01:53:38.967Z,0
2017-04-28T01:54:19.833Z,0
2017-04-28T01:55:00.709Z,0
2017-04-28T01:55:41.582Z,0
2017-04-28T01:56:22.470Z,0
2017-04-28T01:57:03.355Z,0
2017-04-28T01:57:44.210Z,0
2017-04-28T01:58:25.079Z,0
2017-04-28T01:59:05.959Z,0
2017-04-28T01:59:46.865Z,0
2017-04-28T02:00:27.744Z,0
2017-04-28T02:01:08.609Z,0
2017-04-28T02:01:49.493Z,0
2017-04-28T02:02:30.384Z,0
2017-04-28T02:03:11.265Z,0
2017-04-28T02:03:52.169Z,0
2017-04-28T02:04:33.042Z,0
2017-04-28T02:05:13.933Z,0
2017-04-28T02:05:54.811Z,0
2017-04-28T02:06:35.677Z,0
2017-04-28T02:07:16.580Z,0
2017-04-28T02:07:57.472Z,0
2017-04-28T02:08:38.321Z,0
2017-04-28T02:09:19.186Z,0
2017-04-28T02:10:00.052Z,0
2017-04-28T02:10:40.916Z,0
2017-04-28T02:11:21.784Z,0
2017-04-28T02:12:02.659Z,0
2017-04-28T02:12:43.525Z,0
2017-04-28T02:13:24.408Z,0
2017-04-28T02:14:05.295Z,0
2017-04-28T02:14:46.155Z,0
2017-04-28T02:15:27.009Z,0
2017-04-28T02:16:07.867Z,0
2017-04-28T02:16:48.753Z,0
2017-04-28T02:17:29.626Z,0
2017-04-28T02:18:10.515Z,0
2017-04-28T02:18:51.385Z,0
2017-04-28T02:19:32.286Z,0
2017-04-28T02:20:13.137Z,0
2017-04-28T02:20:53.999Z,0
2017-04-28T02:21:34.863Z,0
2017-04-28T02:22:15.719Z,0
2017-04-28T02:22:56.587Z,0
2017-04-28T02:23:37.504Z,0
2017-04-28T02:24:18.349Z,0
2017-04-28T02:24:59.230Z,0
2017-04-28T02:25:40.091Z,0
2017-04-28T02:26:20.952Z,0
2017-04-28T02:27:01.824Z,0
2017-04-28T02:27:42.696Z,0
2017-04-28T02:28:23.586Z,0
2017-04-28T02:29:04.451Z,0
2017-04-28T02:29:45.321Z,0
2017-04-28T02:30:26.216Z,0
2017-04-28T02:31:07.099Z,0
2017-04-28T02:31:47.967Z,0
2017-04-28T02:32:28.867Z,0
2017-04-28T02:33:09.735Z,0
2017-04-28T02:33:50.582Z,0
2017-04-28T02:34:31.433Z,0
2017-04-28T02:35:12.301Z,0
2017-04-28T02:35:53.153Z,0
2017-04-28T02:36:34.005Z,0
2017-04-28T02:37:14.868Z,0
2017-04-28T02:37:55.750Z,0
2017-04-28T02:38:36.659Z,0
2017-04-28T02:39:17.521Z,0
2017-04-28T02:39:58.432Z,0
2017-04-28T02:40:39.283Z,0
2017-04-28T02:41:20.132Z,0
2017-04-28T02:42:01.010Z,0
2017-04-28T02:42:41.896Z,0
2017-04-28T02:43:22.796Z,0
2017-04-28T02:44:03.672Z,0
2017-04-28T02:44:44.532Z,0
2017-04-28T02:45:25.390Z,0
2017-04-28T02:46:06.253Z,0
2017-04-28T02:46:47.122Z,0
2017-04-28T02:47:28.010Z,0
2017-04-28T02:48:08.888Z,0
2017-04-28T02:48:49.750Z,0
2017-04-28T02:49:30.632Z,0
2017-04-28T02:50:11.532Z,0
2017-04-28T02:50:52.421Z,0
2017-04-28T02:51:33.284Z,0
2017-04-28T02:52:14.154Z,0
2017-04-28T02:52:55.025Z,0
2017-04-28T02:53:35.885Z,0
2017-04-28T02:54:16.739Z,0
2017-04-28T02:54:57.599Z,0
2017-04-28T02:55:38.458Z,0
2017-04-28T02:56:19.337Z,0
2017-04-28T02:57:00.198Z,0
2017-04-28T02:57:41.111Z,0
2017-04-28T02:58:21.982Z,0
2017-04-28T02:59:02.848Z,0
2017-04-28T02:59:43.727Z,0
2017-04-28T03:00:24.596Z,0
2017-04-28T03:01:05.497Z,0
2017-04-28T03:01:46.372Z,0
2017-04-28T03:02:27.227Z,0
2017-04-28T03:03:08.106Z,0
2017-04-28T03:03:48.955Z,0
2017-04-28T03:04:29.872Z,0
2017-04-28T03:05:10.756Z,0
2017-04-28T03:05:51.620Z,0
2017-04-28T03:06:32.491Z,0
2017-04-28T03:07:13.372Z,0
2017-04-28T03:07:54.238Z,0
2017-04-28T03:08:35.121Z,0
2017-04-28T03:09:16.001Z,0
2017-04-28T03:09:56.880Z,0
2017-04-28T03:10:37.750Z,0
2017-04-28T03:11:18.634Z,0
2017-04-28T03:11:59.518Z,0
2017-04-28T03:12:40.397Z,0
2017-04-28T03:13:21.278Z,0
2017-04-28T03:14:02.147Z,0
2017-04-28T03:14:43.013Z,0
2017-04-28T03:15:23.898Z,0
2017-04-28T03:16:04.785Z,0
2017-04-28T03:16:45.649Z,0
2017-04-28T03:17:26.538Z,0
2017-04-28T03:18:07.416Z,0
2017-04-28T03:18:48.308Z,0
2017-04-28T03:19:29.195Z,0
2017-04-28T03:20:10.069Z,0
2017-04-28T03:20:50.951Z,0
2017-04-28T03:21:31.841Z,0
2017-04-28T03:22:12.747Z,0
2017-04-28T03:22:53.624Z,0
2017-04-28T03:23:34.511Z,0
2017-04-28T03:24:15.392Z,0
2017-04-28T03:24:56.255Z,0
2017-04-28T03:25:37.143Z,0
2017-04-28T03:26:18.079Z,0
2017-04-28T03:26:58.974Z,0
2017-04-28T03:27:39.850Z,0
2017-04-28T03:28:20.719Z,0
2017-04-28T03:29:01.583Z,0
2017-04-28T03:29:42.453Z,0
2017-04-28T03:30:23.334Z,0
2017-04-28T03:31:04.189Z,0
2017-04-28T03:31:45.060Z,0
2017-04-28T03:32:25.971Z,0
2017-04-28T03:33:06.854Z,0
2017-04-28T03:33:47.734Z,0
2017-04-28T03:34:28.605Z,0
2017-04-28T03:35:09.483Z,0
2017-04-28T03:35:50.362Z,0
2017-04-28T03:36:31.249Z,0
2017-04-28T03:37:12.129Z,0
2017-04-28T03:37:53.012Z,0
2017-04-28T03:38:33.876Z,0
2017-04-28T03:39:14.747Z,0
2017-04-28T03:39:55.650Z,5
2017-04-28T03:40:36.503Z,5
2017-04-28T03:41:17.395Z,5
2017-04-28T03:41:58.227Z,5
2017-04-28T03:42:39.090Z,5
2017-04-28T03:43:19.954Z,5
2017-04-28T03:44:00.822Z,5
2017-04-28T03:44:41.697Z,5
2017-04-28T03:45:22.592Z,5
2017-04-28T03:46:03.495Z,5
2017-04-28T03:46:44.369Z,5
2017-04-28T03:47:25.251Z,5
2017-04-28T03:48:06.138Z,5
2017-04-28T03:48:47.018Z,5
2017-04-28T03:49:27.892Z,5
2017-04-28T03:50:08.775Z,5
2017-04-28T03:50:49.640Z,10
2017-04-28T03:51:30.514Z,10
2017-04-28T03:52:11.395Z,10
2017-04-28T03:52:52.274Z,10
2017-04-28T03:53:33.127Z,10
2017-04-28T03:54:14.005Z,10
2017-04-28T03:54:54.879Z,10
2017-04-28T03:55:35.766Z,10
2017-04-28T03:56:16.649Z,10
2017-04-28T03:56:57.516Z,10
2017-04-28T03:57:38.402Z,10
2017-04-28T03:58:19.278Z,10
2017-04-28T03:59:00.160Z,10
2017-04-28T03:59:41.022Z,15
2017-04-28T04:00:21.906Z,15
2017-04-28T04:01:02.767Z,15
2017-04-28T04:01:43.642Z,15
2017-04-28T04:02:24.527Z,15
2017-04-28T04:03:05.399Z,15
2017-04-28T04:03:46.271Z,15
2017-04-28T04:04:27.137Z,15
2017-04-28T04:05:07.996Z,15
2017-04-28T04:05:48.865Z,15
2017-04-28T04:06:29.752Z,15
2017-04-28T04:07:10.635Z,20
2017-04-28T04:07:51.511Z,20
2017-04-28T04:08:32.405Z,20
2017-04-28T04:10:25.973Z,20
2017-04-28T04:11:06.850Z,20
2017-04-28T04:11:47.714Z,20
2017-04-28T04:12:28.610Z,20
2017-04-28T04:13:09.448Z,20
2017-04-28T04:13:50.329Z,25
2017-04-28T04:14:31.190Z,25
2017-04-28T04:15:12.053Z,25
2017-04-28T04:15:52.932Z,25
2017-04-28T04:16:33.814Z,25
2017-04-28T04:17:14.696Z,25
2017-04-28T04:17:55.553Z,25
2017-04-28T04:18:36.421Z,30
2017-04-28T04:19:17.273Z,30
2017-04-28T04:19:58.164Z,30
2017-04-28T04:20:39.038Z,30
2017-04-28T04:21:19.887Z,30
2017-04-28T04:22:00.736Z,30
2017-04-28T04:22:41.611Z,30
2017-04-28T04:23:22.490Z,30
2017-04-28T04:24:03.445Z,30
2017-04-28T04:24:44.301Z,35
2017-04-28T04:25:25.152Z,35
2017-04-28T04:26:06.022Z,35
2017-04-28T04:26:46.921Z,35
2017-04-28T04:27:27.797Z,35
2017-04-28T04:28:08.645Z,35
2017-04-28T04:28:49.549Z,35
2017-04-28T04:29:30.420Z,40
2017-04-28T04:30:11.295Z,40
2017-04-28T04:30:52.174Z,45
2017-04-28T04:31:33.065Z,45
2017-04-28T04:32:13.896Z,45
2017-04-28T04:32:54.787Z,50
2017-04-28T04:33:35.711Z,50
2017-04-28T04:34:16.548Z,50
2017-04-28T04:34:57.415Z,50
2017-04-28T04:35:38.298Z,55
2017-04-28T04:36:19.163Z,55
2017-04-28T04:37:00.031Z,55
2017-04-28T04:37:40.946Z,55
2017-04-28T04:38:21.847Z,60
2017-04-28T04:39:02.711Z,60
2017-04-28T04:39:43.640Z,60
2017-04-28T04:40:24.537Z,60
2017-04-28T04:41:05.408Z,60
2017-04-28T04:41:46.290Z,60
2017-04-28T04:42:27.135Z,65
2017-04-28T04:43:08.002Z,65
2017-04-28T04:43:48.916Z,65
2017-04-28T04:44:29.784Z,65
2017-04-28T04:45:10.689Z,70
2017-04-28T04:45:51.539Z,70
2017-04-28T04:46:32.412Z,70
2017-04-28T04:47:13.277Z,70
2017-04-28T04:47:54.158Z,70
2017-04-28T04:48:35.009Z,75
2017-04-28T04:49:15.879Z,75
2017-04-28T04:49:56.735Z,75
2017-04-28T04:50:37.619Z,75
2017-04-28T04:51:18.499Z,80
2017-04-28T04:51:59.365Z,80
2017-04-28T04:52:40.217Z,80
2017-04-28T04:53:21.101Z,80
2017-04-28T04:54:01.971Z,80
2017-04-28T04:54:42.846Z,80
2017-04-28T04:55:23.708Z,80
2017-04-28T04:56:04.608Z,80
2017-04-28T04:56:45.488Z,85
2017-04-28T04:57:26.372Z,85
2017-04-28T04:58:07.248Z,90
2017-04-28T04:58:48.096Z,90
2017-04-28T04:59:28.960Z,90
2017-04-28T05:00:09.847Z,95
2017-04-28T05:00:50.737Z,95
2017-04-28T05:01:32.185Z,95
2017-04-28T05:02:13.057Z,95
2017-04-28T05:02:53.941Z,100
2017-04-28T05:03:34.791Z,100
2017-04-28T05:04:15.668Z,100
2017-04-28T05:04:56.527Z,100
2017-04-28T05:05:37.448Z,105
2017-04-28T05:06:18.320Z,105
2017-04-28T05:06:59.187Z,105
2017-04-28T05:07:41.824Z,105
2017-04-28T05:08:22.695Z,110
2017-04-28T05:09:03.575Z,110
2017-04-28T05:09:44.458Z,110
2017-04-28T05:10:25.367Z,115
2017-04-28T05:11:06.250Z,115
2017-04-28T05:11:47.128Z,115
2017-04-28T05:12:28.012Z,115
2017-04-28T05:13:09.674Z,120
2017-04-28T05:13:50.547Z,120
2017-04-28T05:14:31.422Z,120
2017-04-28T05:15:12.291Z,120
2017-04-28T05:15:53.153Z,120
2017-04-28T05:16:34.045Z,120
2017-04-28T05:17:14.921Z,125
2017-04-28T05:17:55.785Z,125
2017-04-28T05:18:36.655Z,125
2017-04-28T05:19:17.526Z,125
2017-04-28T05:19:58.403Z,125
2017-04-28T05:20:39.283Z,125
2017-04-28T05:21:20.151Z,125
2017-04-28T05:22:01.076Z,130
2017-04-28T05:22:41.950Z,130
2017-04-28T05:23:22.830Z,130
2017-04-28T05:24:03.695Z,130
2017-04-28T05:24:44.559Z,130
2017-04-28T05:25:25.419Z,135
2017-04-28T05:26:06.277Z,135
2017-04-28T05:26:47.157Z,135
2017-04-28T05:27:28.038Z,135
2017-04-28T05:28:08.897Z,135
2017-04-28T05:28:49.790Z,140
2017-04-28T05:29:30.649Z,140
2017-04-28T05:30:11.546Z,140
2017-04-28T05:30:52.489Z,140
2017-04-28T05:31:33.370Z,140
2017-04-28T05:32:14.246Z,145
2017-04-28T05:32:55.141Z,145
2017-04-28T05:33:36.037Z,145
2017-04-28T05:34:17.029Z,145
2017-04-28T05:34:57.913Z,145
2017-04-28T05:35:38.784Z,145
2017-04-28T05:36:19.684Z,150
2017-04-28T05:37:00.529Z,150
2017-04-28T05:37:41.400Z,150
2017-04-28T05:38:22.281Z,150
2017-04-28T05:39:03.156Z,155
2017-04-28T05:39:44.018Z,155
2017-04-28T05:40:24.899Z,155
2017-04-28T05:41:05.753Z,155
2017-04-28T05:41:46.615Z,155
2017-04-28T05:42:27.481Z,160
2017-04-28T05:43:08.358Z,160
2017-04-28T05:43:49.219Z,160
2017-04-28T05:44:30.102Z,160
2017-04-28T05:45:10.992Z,160
2017-04-28T05:45:51.883Z,165
2017-04-28T05:46:34.477Z,165
2017-04-28T05:47:15.336Z,165
2017-04-28T05:47:56.198Z,165
2017-04-28T05:48:37.083Z,165
2017-04-28T05:49:18.016Z,170
2017-04-28T05:49:58.928Z,170
2017-04-28T05:53:51.016Z,175
2017-04-28T05:54:31.909Z,175
2017-04-28T05:55:12.781Z,175
2017-04-28T05:55:53.669Z,175
2017-04-28T05:56:34.552Z,180
2017-04-28T05:57:15.428Z,180
2017-04-28T05:57:56.315Z,180
2017-04-28T05:58:37.187Z,180
2017-04-28T05:59:18.059Z,185
2017-04-28T05:59:58.937Z,185
2017-04-28T06:00:39.822Z,185
2017-04-28T06:01:20.775Z,185
2017-04-28T06:02:01.660Z,185
2017-04-28T06:02:42.537Z,185
2017-04-28T06:03:23.446Z,190
2017-04-28T06:04:04.288Z,190
2017-04-28T06:04:45.174Z,190
2017-04-28T06:05:26.056Z,190
2017-04-28T06:06:06.940Z,190
2017-04-28T06:06:47.823Z,190
2017-04-28T06:07:28.707Z,195
2017-04-28T06:08:09.601Z,195
2017-04-28T06:08:50.483Z,195
2017-04-28T06:09:31.346Z,195
2017-04-28T06:10:12.218Z,195
2017-04-28T06:10:53.095Z,195
2017-04-28T06:11:33.980Z,195
2017-04-28T06:12:14.856Z,195
2017-04-28T06:12:55.747Z,200
2017-04-28T06:13:36.632Z,200
2017-04-28T06:14:17.516Z,200
2017-04-28T06:14:58.402Z,200
2017-04-28T06:15:39.280Z,205
2017-04-28T06:16:20.159Z,205
2017-04-28T06:17:01.046Z,205
2017-04-28T06:17:41.913Z,205
2017-04-28T06:18:22.814Z,205
2017-04-28T06:19:03.691Z,210
2017-04-28T06:19:44.570Z,210
2017-04-28T06:20:25.439Z,210
2017-04-28T06:21:06.324Z,210
2017-04-28T06:21:47.206Z,215
2017-04-28T06:22:28.089Z,215
2017-04-28T06:23:08.976Z,215
2017-04-28T06:23:49.855Z,215
2017-04-28T06:24:30.730Z,220
2017-04-28T06:25:11.605Z,220
2017-04-28T06:25:52.474Z,220
2017-04-28T06:26:33.359Z,220
2017-04-28T06:27:14.246Z,225
2017-04-28T06:27:55.128Z,225
2017-04-28T06:28:36.006Z,225
2017-04-28T06:29:16.873Z,230
2017-04-28T06:29:57.753Z,230
2017-04-28T06:30:38.631Z,230
2017-04-28T06:31:19.521Z,235
2017-04-28T06:32:00.405Z,235
2017-04-28T06:32:41.288Z,235
2017-04-28T06:33:22.169Z,240
2017-04-28T06:34:03.059Z,240
2017-04-28T06:34:43.947Z,245
2017-04-28T06:35:24.826Z,245
2017-04-28T06:36:05.710Z,250
2017-04-28T06:36:46.587Z,250
2017-04-28T06:37:27.481Z,255
2017-04-28T06:38:08.355Z,255
2017-04-28T06:38:49.238Z,260
2017-04-28T06:39:30.121Z,265
2017-04-28T06:40:11.011Z,270
2017-04-28T06:40:51.917Z,275
2017-04-28T06:41:32.802Z,275
2017-04-28T06:42:13.685Z,280
2017-04-28T06:42:54.569Z,295
2017-04-28T06:43:35.438Z,315
2017-04-28T06:44:16.332Z,355
2017-04-28T06:44:57.220Z,385
2017-04-28T06:45:38.074Z,410
2017-04-28T06:46:18.956Z,425
2017-04-28T06:46:59.834Z,430
2017-04-28T06:47:40.720Z,430
2017-04-28T06:48:21.602Z,435
2017-04-28T06:49:02.507Z,435
2017-04-28T06:49:43.358Z,440
2017-04-28T06:50:24.240Z,425
2017-04-28T06:51:05.118Z,390
2017-04-28T06:51:45.997Z,355
2017-04-28T06:52:26.925Z,370
2017-04-28T06:53:07.818Z,400
2017-04-28T06:53:48.701Z,415
2017-04-28T06:54:29.588Z,450
2017-04-28T06:55:10.463Z,470
2017-04-28T06:55:51.357Z,475
2017-04-28T06:56:32.212Z,485
2017-04-28T06:57:13.092Z,490
2017-04-28T06:57:53.977Z,490
2017-04-28T06:58:34.854Z,495
2017-04-28T06:59:15.738Z,495
2017-04-28T06:59:56.610Z,485
2017-04-28T07:00:37.481Z,475
2017-04-28T07:01:18.342Z,465
2017-04-28T07:01:59.206Z,600
2017-04-28T07:02:40.084Z,875
2017-04-28T07:03:20.978Z,1090
2017-04-28T07:04:01.855Z,1195
2017-04-28T07:04:42.730Z,1240
2017-04-28T07:05:23.603Z,1230
2017-04-28T07:06:04.476Z,1225
2017-04-28T07:06:45.364Z,1225
2017-04-28T07:07:26.268Z,1225
2017-04-28T07:08:07.154Z,1235
2017-04-28T07:08:48.038Z,1225
2017-04-28T07:09:28.921Z,1215
2017-04-28T07:10:09.812Z,1160
2017-04-28T07:10:50.700Z,1165
2017-04-28T07:11:31.598Z,1180
2017-04-28T07:12:12.509Z,1220
2017-04-28T07:12:53.367Z,1255
2017-04-28T07:13:34.267Z,1325
2017-04-28T07:14:15.143Z,1345
2017-04-28T07:14:56.052Z,1370
2017-04-28T07:15:36.944Z,1390
2017-04-28T07:16:17.832Z,1400
2017-04-28T07:16:58.732Z,1420
2017-04-28T07:17:39.628Z,1360
2017-04-28T07:18:20.524Z,1315
2017-04-28T07:19:01.416Z,1300
2017-04-28T07:19:42.315Z,1325
2017-04-28T07:20:23.207Z,1395
2017-04-28T07:21:04.098Z,1440
2017-04-28T07:21:44.991Z,1450
2017-04-28T07:22:25.879Z,1455
2017-04-28T07:23:06.773Z,1450
2017-04-28T07:23:47.667Z,1440
2017-04-28T07:24:28.569Z,1415
2017-04-28T07:25:09.457Z,1380
2017-04-28T07:25:50.344Z,1340
2017-04-28T07:26:31.212Z,1310
2017-04-28T07:27:12.089Z,1280
2017-04-28T07:27:52.970Z,1245
2017-04-28T07:28:33.873Z,1190
2017-04-28T07:29:14.767Z,1150
2017-04-28T07:29:55.672Z,1155
2017-04-28T07:30:36.532Z,1190
2017-04-28T07:31:17.415Z,1255
2017-04-28T07:31:58.334Z,1335
2017-04-28T07:32:39.220Z,1360
2017-04-28T07:33:20.117Z,1360
2017-04-28T07:34:01.021Z,1385
2017-04-28T07:34:41.918Z,1415
2017-04-28T07:35:22.815Z,1510
2017-04-28T07:36:03.753Z,1555
2017-04-28T07:36:44.653Z,1580
2017-04-28T07:37:25.556Z,1605
2017-04-28T07:38:06.470Z,1605
2017-04-28T07:38:47.372Z,1630
2017-04-28T07:39:28.270Z,1625
2017-04-28T07:40:09.156Z,1630
2017-04-28T07:40:50.055Z,1655
2017-04-28T07:41:30.952Z,1680
2017-04-28T07:42:11.849Z,1695
2017-04-28T07:42:52.740Z,1705
2017-04-28T07:43:33.634Z,1675
2017-04-28T07:44:14.538Z,1660
2017-04-28T07:44:55.441Z,1635
2017-04-28T07:45:36.340Z,1585
2017-04-28T07:46:17.227Z,1515
2017-04-28T07:46:58.127Z,1485
2017-04-28T07:47:39.023Z,1480
2017-04-28T07:48:19.929Z,1500
2017-04-28T07:49:00.831Z,1495
2017-04-28T07:49:41.723Z,1510
2017-04-28T07:50:22.674Z,1565
2017-04-28T07:51:03.575Z,1665
2017-04-28T07:51:44.479Z,1705
2017-04-28T07:52:25.380Z,1715
2017-04-28T07:53:06.284Z,1720
2017-04-28T07:53:47.177Z,1720
2017-04-28T07:54:28.062Z,1700
2017-04-28T07:55:08.963Z,1690
2017-04-28T07:55:49.851Z,1670
2017-04-28T07:56:30.754Z,1710
2017-04-28T07:57:11.667Z,1725
2017-04-28T07:57:52.568Z,1750
2017-04-28T07:58:33.475Z,1795
2017-04-28T07:59:14.386Z,1775
2017-04-28T07:59:55.288Z,1680
2017-04-28T08:00:36.181Z,1785
2017-04-28T08:01:17.079Z,1810
2017-04-28T08:01:57.978Z,1720
2017-04-28T08:02:38.884Z,1635
2017-04-28T08:03:19.800Z,1680
2017-04-28T08:04:00.700Z,1660
2017-04-28T08:04:41.597Z,1790
2017-04-28T08:05:22.491Z,1865
2017-04-28T08:06:03.394Z,1950
2017-04-28T08:06:44.299Z,1960
2017-04-28T08:07:25.201Z,2005
2017-04-28T08:08:06.089Z,2030
2017-04-28T08:08:46.988Z,2020
2017-04-28T08:09:27.896Z,2020
2017-04-28T08:10:08.805Z,2010
2017-04-28T08:10:49.715Z,2030
2017-04-28T08:11:30.609Z,1925
2017-04-28T08:12:11.516Z,2000
2017-04-28T08:12:52.424Z,1940
2017-04-28T08:13:33.304Z,1730
2017-04-28T08:14:14.212Z,1710
2017-04-28T08:14:55.095Z,1700
2017-04-28T08:15:35.998Z,1640
2017-04-28T08:16:16.898Z,1515
2017-04-28T08:16:57.782Z,1450
2017-04-28T08:17:38.686Z,1405
2017-04-28T08:18:19.590Z,1485
2017-04-28T08:19:00.497Z,1560
2017-04-28T08:19:41.406Z,765
2017-04-28T08:20:22.323Z,560
2017-04-28T08:21:03.223Z,625
2017-04-28T08:21:44.114Z,580
2017-04-28T08:22:25.014Z,605
2017-04-28T08:23:05.932Z,525
2017-04-28T08:23:46.833Z,550
2017-04-28T08:24:27.723Z,635
2017-04-28T08:25:08.612Z,745
2017-04-28T08:25:49.514Z,1540
2017-04-28T08:26:30.390Z,550
2017-04-28T08:27:11.283Z,525
2017-04-28T08:27:52.182Z,525
2017-04-28T08:28:33.061Z,520
2017-04-28T08:29:13.956Z,530
2017-04-28T08:29:54.809Z,1080
2017-04-28T08:30:35.703Z,785
2017-04-28T08:31:16.600Z,670
2017-04-28T08:31:57.503Z,530
2017-04-28T08:32:38.378Z,485
2017-04-28T08:33:19.266Z,475
2017-04-28T08:34:00.143Z,465
2017-04-28T08:34:41.037Z,460
2017-04-28T08:35:21.950Z,450
2017-04-28T08:36:02.809Z,470
2017-04-28T08:36:43.689Z,530
2017-04-28T08:37:24.566Z,495
2017-04-28T08:38:05.447Z,465
2017-04-28T08:38:46.346Z,440
2017-04-28T08:39:27.233Z,395
2017-04-28T08:40:08.136Z,370
2017-04-28T08:40:49.024Z,360
2017-04-28T08:41:29.903Z,405
2017-04-28T08:42:10.797Z,360
2017-04-28T08:42:51.679Z,355
2017-04-28T08:43:32.569Z,355
2017-04-28T08:44:13.452Z,335
2017-04-28T08:44:54.350Z,325
2017-04-28T08:45:35.229Z,320
2017-04-28T08:46:16.112Z,320
2017-04-28T08:46:57.001Z,315
2017-04-28T08:47:37.882Z,315
2017-04-28T08:48:18.770Z,310
2017-04-28T08:48:59.659Z,305
2017-04-28T08:49:40.548Z,300
2017-04-28T08:50:21.438Z,305
2017-04-28T08:51:02.325Z,300
2017-04-28T08:51:43.220Z,305
2017-04-28T08:52:24.107Z,310
2017-04-28T08:53:05.012Z,310
2017-04-28T08:53:45.882Z,310
2017-04-28T08:54:26.772Z,320
2017-04-28T08:55:07.634Z,330
2017-04-28T08:55:48.504Z,330
2017-04-28T08:56:29.491Z,325
2017-04-28T08:57:10.357Z,330
2017-04-28T08:57:51.278Z,320
2017-04-28T08:58:32.160Z,315
2017-04-28T08:59:13.032Z,305
2017-04-28T08:59:53.934Z,305
2017-04-28T09:00:34.801Z,300
2017-04-28T09:01:15.691Z,295
2017-04-28T09:01:56.589Z,295
2017-04-28T09:02:37.470Z,290
2017-04-28T09:03:18.401Z,285
2017-04-28T09:03:59.288Z,285
2017-04-28T09:04:40.179Z,285
2017-04-28T09:05:21.050Z,285
2017-04-28T09:06:01.941Z,285
2017-04-28T09:06:42.833Z,290
2017-04-28T09:07:23.705Z,290
2017-04-28T09:08:04.597Z,290
2017-04-28T09:08:45.489Z,290
2017-04-28T09:09:26.349Z,290
2017-04-28T09:10:07.236Z,295
2017-04-28T09:10:48.120Z,300
2017-04-28T09:11:29.006Z,305
2017-04-28T09:12:09.886Z,305
2017-04-28T09:12:50.769Z,305
2017-04-28T09:13:31.654Z,305
2017-04-28T09:14:12.535Z,305
2017-04-28T09:14:53.441Z,305
2017-04-28T09:15:34.300Z,305
2017-04-28T09:16:15.181Z,310
2017-04-28T09:16:56.069Z,305
2017-04-28T09:17:37.793Z,305
2017-04-28T09:18:18.675Z,310
2017-04-28T09:18:59.562Z,310
2017-04-28T09:19:40.451Z,325
2017-04-28T09:20:21.331Z,325
2017-04-28T09:21:02.249Z,315
2017-04-28T09:21:43.148Z,315
2017-04-28T09:22:24.026Z,300
2017-04-28T09:23:04.928Z,295
2017-04-28T09:23:45.825Z,290
2017-04-28T09:24:26.701Z,285
2017-04-28T09:25:07.595Z,280
2017-04-28T09:25:48.476Z,280
2017-04-28T09:26:29.357Z,275
2017-04-28T09:27:10.250Z,270
2017-04-28T09:27:51.145Z,260
2017-04-28T09:28:32.027Z,250
2017-04-28T09:29:12.898Z,245
2017-04-28T09:29:53.778Z,235
2017-04-28T09:30:34.674Z,230
2017-04-28T09:31:15.549Z,225
2017-04-28T09:31:56.433Z,220
2017-04-28T09:32:37.303Z,220
2017-04-28T09:33:18.194Z,215
2017-04-28T09:33:59.089Z,215
2017-04-28T09:34:39.963Z,215
2017-04-28T09:35:20.838Z,215
2017-04-28T09:36:01.719Z,220
2017-04-28T09:36:42.608Z,225
2017-04-28T09:37:23.488Z,235
2017-04-28T09:38:04.371Z,245
2017-04-28T09:38:45.251Z,255
2017-04-28T09:39:26.133Z,260
2017-04-28T09:40:07.013Z,265
2017-04-28T09:40:47.887Z,265
2017-04-28T09:41:28.766Z,265
2017-04-28T09:42:09.675Z,265
2017-04-28T09:42:50.560Z,265
2017-04-28T09:43:31.438Z,265
2017-04-28T09:44:12.313Z,275